Time;durP1;ratioP1;P1;durP2;ratioP2;P2;SDS_P1;SDS_P2;PMS_P1;PMS_P2;Temp;Humidity;BMP_temperature;BMP_pressure;BME280_temperature;BME280_humidity;BME280_pressure;Samples;Min_cycle;Max_cycle;Signal;HPM_P1;HPM_P2
2021/07/12 00:02:22;;;;;;;1.55;1.38;;;;;;;;;;10352423;28;20048;-27
2021/07/12 00:07:25;;;;;;;2.55;1.42;;;;;;;;;;10352436;28;20056;-27
2021/07/12 00:12:27;;;;;;;1.52;1.30;;;;;;;;;;10351585;28;20050;-27
2021/07/12 00:17:32;;;;;;;3.78;1.67;;;;;;;;;;10346272;28;20046;-27
2021/07/12 00:22:35;;;;;;;2.63;1.80;;;;;;;;;;10351685;28;20049;-28
2021/07/12 00:27:38;;;;;;;2.75;1.80;;;;;;;;;;10350756;28;20053;-27
2021/07/12 00:32:42;;;;;;;2.65;2.00;;;;;;;;;;10347236;28;20050;-27
2021/07/12 00:37:45;;;;;;;2.10;1.60;;;;;;;;;;10348276;28;20060;-27
2021/07/12 00:42:48;;;;;;;3.80;2.00;;;;;;;;;;10348835;28;20057;-26
2021/07/12 00:47:53;;;;;;;2.25;2.05;;;;;;;;;;10357168;28;20049;-26
2021/07/12 00:52:57;;;;;;;3.15;2.17;;;;;;;;;;10356334;28;20088;-27
2021/07/12 00:58:00;;;;;;;2.95;1.80;;;;;;;;;;10356840;28;20803;-27
2021/07/12 01:03:05;;;;;;;2.10;1.92;;;;;;;;;;10356649;28;20048;-27
2021/07/12 01:08:10;;;;;;;3.10;1.85;;;;;;;;;;10358163;28;20171;-27
2021/07/12 01:13:27;;;;;;;2.92;1.80;;;;;;;;;;10358195;28;20061;-26
2021/07/12 01:18:34;;;;;;;2.20;2.00;;;;;;;;;;10358658;28;20041;-28
2021/07/12 01:23:43;;;;;;;3.25;1.90;;;;;;;;;;10354176;28;20083;-28
2021/07/12 01:29:02;;;;;;;2.15;1.85;;;;;;;;;;10357026;28;20050;-27
2021/07/12 01:34:09;;;;;;;3.28;1.52;;;;;;;;;;10357545;28;20137;-27
2021/07/12 01:39:16;;;;;;;1.70;1.50;;;;;;;;;;10357390;28;20370;-27
2021/07/12 01:44:26;;;;;;;2.53;1.80;;;;;;;;;;10358704;28;20049;-27
2021/07/12 01:49:37;;;;;;;2.00;1.27;;;;;;;;;;10356309;28;20754;-26
2021/07/12 01:54:46;;;;;;;2.17;1.30;;;;;;;;;;10350551;28;20511;-26
2021/07/12 01:59:52;;;;;;;2.10;1.20;;;;;;;;;;10351237;28;20046;-26
2021/07/12 02:04:58;;;;;;;3.83;1.50;;;;;;;;;;10352081;28;20173;-27
2021/07/12 02:10:01;;;;;;;2.80;1.13;;;;;;;;;;10355412;28;20046;-26
2021/07/12 02:15:09;;;;;;;3.22;1.17;;;;;;;;;;10360538;28;20180;-27
2021/07/12 02:20:16;;;;;;;1.80;1.00;;;;;;;;;;10355636;28;20041;-27
2021/07/12 02:25:19;;;;;;;1.10;0.90;;;;;;;;;;10355378;28;20050;-27
2021/07/12 02:30:24;;;;;;;1.00;0.88;;;;;;;;;;10354432;28;20057;-26
2021/07/12 02:35:29;;;;;;;1.30;0.80;;;;;;;;;;10351925;28;20141;-27
2021/07/12 02:40:32;;;;;;;2.78;0.95;;;;;;;;;;10359753;28;20824;-26
2021/07/12 02:45:38;;;;;;;1.42;0.80;;;;;;;;;;10359221;28;20333;-27
2021/07/12 02:50:44;;;;;;;2.70;0.88;;;;;;;;;;10354938;28;20042;-27
2021/07/12 02:55:48;;;;;;;1.40;0.70;;;;;;;;;;10360308;28;20415;-27
2021/07/12 03:00:51;;;;;;;1.50;0.60;;;;;;;;;;10355364;28;20560;-27
2021/07/12 03:06:00;;;;;;;1.67;0.60;;;;;;;;;;10360120;28;20450;-26
2021/07/12 03:11:06;;;;;;;0.57;0.50;;;;;;;;;;10360210;28;20116;-27
2021/07/12 03:16:10;;;;;;;0.65;0.40;;;;;;;;;;10360582;28;20052;-28
2021/07/12 03:21:15;;;;;;;0.65;0.40;;;;;;;;;;10354260;28;20050;-26
2021/07/12 03:26:20;;;;;;;1.40;0.40;;;;;;;;;;10360519;28;20148;-27
2021/07/12 03:31:26;;;;;;;0.75;0.40;;;;;;;;;;10352311;28;20050;-26
2021/07/12 03:36:32;;;;;;;0.50;0.30;;;;;;;;;;10355286;28;20086;-26
2021/07/12 03:41:37;;;;;;;1.20;0.43;;;;;;;;;;10348827;28;20100;-27
2021/07/12 03:46:41;;;;;;;0.68;0.30;;;;;;;;;;10351781;28;20049;-26
2021/07/12 03:51:50;;;;;;;0.45;0.30;;;;;;;;;;10351219;28;20057;-26
2021/07/12 03:56:54;;;;;;;0.30;0.30;;;;;;;;;;10352927;28;20038;-27
2021/07/12 04:01:56;;;;;;;0.38;0.38;;;;;;;;;;10352586;28;20042;-26
2021/07/12 04:07:00;;;;;;;0.40;0.40;;;;;;;;;;10352879;28;20057;-26
2021/07/12 04:12:03;;;;;;;1.73;0.38;;;;;;;;;;10351713;28;20563;-26
2021/07/12 04:17:06;;;;;;;0.95;0.30;;;;;;;;;;10350718;28;20046;-27
2021/07/12 04:22:11;;;;;;;1.10;0.30;;;;;;;;;;10349792;28;20144;-26
2021/07/12 04:27:14;;;;;;;1.20;0.30;;;;;;;;;;10355080;28;20127;-26
2021/07/12 04:32:17;;;;;;;1.08;0.20;;;;;;;;;;10351566;28;20125;-27
2021/07/12 04:37:21;;;;;;;0.80;0.28;;;;;;;;;;10350144;28;20384;-26
2021/07/12 04:42:24;;;;;;;0.30;0.30;;;;;;;;;;10351079;28;20045;-26
2021/07/12 04:47:26;;;;;;;0.30;0.22;;;;;;;;;;10350804;28;20406;-27
2021/07/12 04:52:31;;;;;;;0.20;0.20;;;;;;;;;;10350457;28;20136;-27
2021/07/12 04:57:34;;;;;;;0.95;0.20;;;;;;;;;;10353399;28;20050;-27
2021/07/12 05:02:38;;;;;;;0.30;0.30;;;;;;;;;;10352122;28;20064;-26
2021/07/12 05:07:42;;;;;;;0.43;0.20;;;;;;;;;;10348842;28;20108;-27
2021/07/12 05:12:45;;;;;;;0.20;0.20;;;;;;;;;;10350340;28;20086;-28
2021/07/12 05:17:48;;;;;;;0.40;0.20;;;;;;;;;;10351144;28;20046;-27
2021/07/12 05:22:52;;;;;;;0.60;0.20;;;;;;;;;;10351334;28;20049;-27
2021/07/12 05:27:54;;;;;;;0.25;0.20;;;;;;;;;;10346143;28;20391;-26
2021/07/12 05:32:57;;;;;;;0.22;0.22;;;;;;;;;;10354900;28;20049;-27
2021/07/12 05:38:01;;;;;;;0.22;0.20;;;;;;;;;;10359916;28;20407;-26
2021/07/12 05:43:04;;;;;;;0.10;0.10;;;;;;;;;;10357790;28;20049;-29
2021/07/12 05:48:08;;;;;;;0.22;0.20;;;;;;;;;;10362869;28;20407;-26
2021/07/12 05:53:14;;;;;;;0.10;0.10;;;;;;;;;;10356145;28;20081;-28
2021/07/12 05:58:16;;;;;;;0.17;0.10;;;;;;;;;;10352764;28;20050;-27
2021/07/12 06:03:20;;;;;;;0.10;0.10;;;;;;;;;;10357223;28;20780;-27
2021/07/12 06:08:24;;;;;;;0.10;0.10;;;;;;;;;;10358523;28;20380;-27
2021/07/12 06:13:27;;;;;;;1.10;0.10;;;;;;;;;;10356636;28;20250;-27
2021/07/12 06:18:29;;;;;;;0.03;0.03;;;;;;;;;;10356418;28;20054;-27
2021/07/12 06:23:33;;;;;;;0.03;0.03;;;;;;;;;;10354938;28;20046;-26
2021/07/12 06:28:36;;;;;;;0.10;0.10;;;;;;;;;;10354973;28;20054;-26
2021/07/12 06:33:39;;;;;;;0.10;0.10;;;;;;;;;;10354938;28;20487;-27
2021/07/12 06:38:43;;;;;;;0.10;0.10;;;;;;;;;;10356079;28;20403;-28
2021/07/12 06:43:45;;;;;;;0.10;0.10;;;;;;;;;;10358177;28;20041;-26
2021/07/12 06:48:48;;;;;;;0.28;0.10;;;;;;;;;;10360244;28;20883;-27
2021/07/12 06:53:54;;;;;;;0.22;0.00;;;;;;;;;;10359590;28;20145;-26
2021/07/12 06:58:57;;;;;;;0.20;0.00;;;;;;;;;;10359436;28;20037;-27
2021/07/12 07:04:00;;;;;;;0.10;0.10;;;;;;;;;;10354190;28;20037;-27
2021/07/12 07:09:04;;;;;;;0.10;0.00;;;;;;;;;;10351929;28;20037;-27
2021/07/12 07:14:07;;;;;;;0.05;0.05;;;;;;;;;;10359973;28;20052;-27
2021/07/12 07:19:10;;;;;;;0.20;0.00;;;;;;;;;;10354637;28;20073;-27
2021/07/12 07:24:14;;;;;;;0.95;0.08;;;;;;;;;;10358177;28;20050;-27
2021/07/12 07:29:20;;;;;;;0.00;0.00;;;;;;;;;;10353353;28;20493;-26
2021/07/12 07:34:23;;;;;;;0.10;0.10;;;;;;;;;;10353461;28;20049;-27
2021/07/12 07:39:27;;;;;;;0.00;0.00;;;;;;;;;;10352230;28;20403;-27
2021/07/12 07:44:50;;;;;;;0.00;0.00;;;;;;;;;;10355838;28;20046;-26
2021/07/12 07:49:52;;;;;;;0.82;0.10;;;;;;;;;;10353422;28;20084;-27
2021/07/12 07:54:56;;;;;;;0.00;0.00;;;;;;;;;;10359109;28;20042;-27
2021/07/12 07:59:59;;;;;;;0.10;0.10;;;;;;;;;;10352092;28;20037;-26
2021/07/12 08:05:01;;;;;;;0.00;0.00;;;;;;;;;;10352980;28;20053;-27
2021/07/12 08:10:07;;;;;;;0.13;0.00;;;;;;;;;;10351643;28;20057;-27
2021/07/12 08:15:11;;;;;;;0.52;0.00;;;;;;;;;;10344447;28;20064;-27
2021/07/12 08:20:14;;;;;;;0.00;0.00;;;;;;;;;;10352518;28;20053;-27
2021/07/12 08:25:23;;;;;;;0.05;0.05;;;;;;;;;;10352707;28;20498;-27
2021/07/12 08:30:26;;;;;;;0.00;0.00;;;;;;;;;;10350879;28;20050;-26
2021/07/12 08:35:28;;;;;;;0.00;0.00;;;;;;;;;;10352230;28;20399;-27
2021/07/12 08:40:32;;;;;;;0.00;0.00;;;;;;;;;;10349618;28;20050;-27
2021/07/12 08:45:47;;;;;;;0.00;0.00;;;;;;;;;;10354397;28;20081;-27
2021/07/12 08:50:49;;;;;;;0.00;0.00;;;;;;;;;;10350028;28;20038;-27
2021/07/12 08:55:53;;;;;;;0.20;0.00;;;;;;;;;;10359010;28;20470;-29
2021/07/12 09:01:00;;;;;;;0.00;0.00;;;;;;;;;;10351531;28;20491;-28
2021/07/12 09:06:05;;;;;;;1.27;0.10;;;;;;;;;;10353880;28;20046;-27
2021/07/12 09:11:10;;;;;;;0.00;0.00;;;;;;;;;;10359670;28;20040;-27
2021/07/12 09:16:29;;;;;;;0.00;0.00;;;;;;;;;;10360557;28;20050;-27
2021/07/12 09:21:32;;;;;;;0.00;0.00;;;;;;;;;;10356907;28;20046;-28
2021/07/12 09:26:40;;;;;;;0.43;0.10;;;;;;;;;;10360579;28;20038;-27
2021/07/12 09:31:43;;;;;;;0.00;0.00;;;;;;;;;;10357266;28;20065;-27
2021/07/12 09:36:46;;;;;;;0.63;0.00;;;;;;;;;;10357670;28;20804;-27
2021/07/12 09:41:51;;;;;;;0.00;0.00;;;;;;;;;;10356626;28;20034;-27
2021/07/12 09:46:55;;;;;;;0.43;0.10;;;;;;;;;;10358266;28;20041;-27
2021/07/12 09:51:58;;;;;;;0.70;0.10;;;;;;;;;;10355688;28;20483;-27
2021/07/12 09:57:05;;;;;;;0.00;0.00;;;;;;;;;;10356237;28;20042;-27
2021/07/12 10:02:07;;;;;;;0.03;0.03;;;;;;;;;;10353833;28;20396;-28
2021/07/12 10:07:10;;;;;;;0.00;0.00;;;;;;;;;;10362479;28;20506;-28
2021/07/12 10:12:14;;;;;;;0.10;0.10;;;;;;;;;;10356011;28;20402;-27
2021/07/12 10:17:17;;;;;;;0.00;0.00;;;;;;;;;;10358095;28;20052;-27
2021/07/12 10:22:23;;;;;;;0.00;0.00;;;;;;;;;;10356037;28;20054;-27
2021/07/12 10:27:28;;;;;;;0.28;0.10;;;;;;;;;;10356243;28;20042;-27
2021/07/12 10:32:33;;;;;;;0.57;0.00;;;;;;;;;;10352385;28;20053;-27
2021/07/12 10:37:40;;;;;;;0.05;0.05;;;;;;;;;;10356620;28;20052;-27
2021/07/12 10:42:53;;;;;;;0.00;0.00;;;;;;;;;;10355802;28;20042;-27
2021/07/12 10:48:04;;;;;;;0.10;0.10;;;;;;;;;;10355726;28;20045;-27
2021/07/12 10:53:22;;;;;;;0.10;0.10;;;;;;;;;;10356711;28;20462;-27
2021/07/12 10:58:43;;;;;;;0.10;0.10;;;;;;;;;;10360643;28;20053;-27
2021/07/12 11:03:46;;;;;;;1.45;0.10;;;;;;;;;;10349234;28;20057;-28
2021/07/12 11:08:50;;;;;;;0.10;0.05;;;;;;;;;;10349090;28;20050;-27
2021/07/12 11:13:56;;;;;;;0.20;0.10;;;;;;;;;;10355438;28;20053;-27
2021/07/12 11:18:59;;;;;;;0.52;0.10;;;;;;;;;;10355824;28;20096;-27
2021/07/12 11:24:15;;;;;;;0.20;0.10;;;;;;;;;;10357121;28;20394;-28
2021/07/12 11:29:21;;;;;;;0.00;0.00;;;;;;;;;;10354469;28;20054;-27
2021/07/12 11:34:25;;;;;;;0.35;0.10;;;;;;;;;;10352812;28;20419;-29
2021/07/12 11:39:28;;;;;;;0.10;0.10;;;;;;;;;;10352755;28;20042;-27
2021/07/12 11:44:34;;;;;;;0.00;0.00;;;;;;;;;;10352708;28;20046;-27
2021/07/12 11:49:37;;;;;;;0.95;0.10;;;;;;;;;;10352074;28;20487;-27
2021/07/12 11:54:39;;;;;;;0.00;0.00;;;;;;;;;;10356802;28;20042;-28
2021/07/12 11:59:45;;;;;;;0.00;0.00;;;;;;;;;;10351786;28;20503;-27
2021/07/12 12:04:52;;;;;;;0.10;0.10;;;;;;;;;;10350947;28;20049;-26
2021/07/12 12:09:55;;;;;;;0.13;0.10;;;;;;;;;;10350551;28;20045;-26
2021/07/12 12:15:01;;;;;;;0.10;0.05;;;;;;;;;;10346369;28;20045;-29
2021/07/12 12:20:08;;;;;;;0.10;0.10;;;;;;;;;;10351230;28;20056;-26
2021/07/12 12:25:11;;;;;;;0.13;0.10;;;;;;;;;;10351103;28;20064;-25
2021/07/12 12:30:15;;;;;;;1.08;0.05;;;;;;;;;;10351016;28;20412;-26
2021/07/12 12:35:18;;;;;;;0.17;0.00;;;;;;;;;;10349279;28;20041;-26
2021/07/12 12:40:22;;;;;;;0.00;0.00;;;;;;;;;;10352580;28;20065;-29
2021/07/12 12:45:27;;;;;;;0.00;0.00;;;;;;;;;;10359859;28;20052;-27
2021/07/12 12:50:30;;;;;;;0.00;0.00;;;;;;;;;;10360022;28;20050;-28
2021/07/12 12:55:33;;;;;;;0.15;0.03;;;;;;;;;;10365983;28;20046;-27
2021/07/12 13:00:37;;;;;;;0.00;0.00;;;;;;;;;;10355983;28;20189;-27
2021/07/12 13:05:40;;;;;;;0.30;0.00;;;;;;;;;;10365939;28;20069;-27
2021/07/12 13:10:42;;;;;;;0.00;0.00;;;;;;;;;;10358676;28;20050;-27
2021/07/12 13:15:47;;;;;;;0.10;0.10;;;;;;;;;;10366070;28;20042;-28
2021/07/12 13:20:49;;;;;;;0.00;0.00;;;;;;;;;;10357179;28;20050;-29
2021/07/12 13:25:52;;;;;;;0.00;0.00;;;;;;;;;;10356492;28;20053;-28
2021/07/12 13:30:56;;;;;;;0.30;0.00;;;;;;;;;;10358794;28;20530;-28
2021/07/12 13:35:59;;;;;;;0.00;0.00;;;;;;;;;;10357185;28;20052;-28
2021/07/12 13:41:03;;;;;;;0.00;0.00;;;;;;;;;;10357690;28;20054;-27
2021/07/12 13:46:07;;;;;;;0.00;0.00;;;;;;;;;;10356616;28;20064;-28
2021/07/12 13:51:10;;;;;;;0.03;0.00;;;;;;;;;;10356369;28;20053;-28
2021/07/12 13:56:13;;;;;;;0.00;0.00;;;;;;;;;;10356705;28;20046;-27
2021/07/12 14:01:17;;;;;;;0.00;0.00;;;;;;;;;;10356140;28;20050;-28
2021/07/12 14:06:19;;;;;;;0.00;0.00;;;;;;;;;;10361268;28;20060;-28
2021/07/12 14:11:23;;;;;;;0.00;0.00;;;;;;;;;;10358923;28;20137;-27
2021/07/12 14:16:27;;;;;;;0.00;0.00;;;;;;;;;;10356767;28;20053;-27
2021/07/12 14:21:30;;;;;;;0.05;0.00;;;;;;;;;;10353031;28;20046;-27
2021/07/12 14:26:33;;;;;;;0.00;0.00;;;;;;;;;;10340465;28;20435;-27
2021/07/12 14:31:38;;;;;;;0.00;0.00;;;;;;;;;;10338940;28;20495;-29
2021/07/12 14:36:41;;;;;;;0.00;0.00;;;;;;;;;;10348683;28;20041;-27
2021/07/12 14:41:45;;;;;;;0.00;0.00;;;;;;;;;;10348182;28;20053;-28
2021/07/12 14:46:49;;;;;;;0.00;0.00;;;;;;;;;;10345525;28;20046;-28
2021/07/12 14:51:53;;;;;;;0.90;0.00;;;;;;;;;;10342846;28;20100;-28
2021/07/12 14:56:55;;;;;;;0.00;0.00;;;;;;;;;;10350113;28;20061;-28
2021/07/12 15:02:00;;;;;;;0.00;0.00;;;;;;;;;;10340984;28;20042;-30
2021/07/12 15:07:03;;;;;;;0.00;0.00;;;;;;;;;;10342088;28;20037;-28
2021/07/12 15:12:07;;;;;;;0.00;0.00;;;;;;;;;;10340457;28;20381;-28
2021/07/12 15:17:11;;;;;;;0.05;0.05;;;;;;;;;;10346695;28;20038;-28
2021/07/12 15:22:13;;;;;;;0.10;0.00;;;;;;;;;;10336710;28;20116;-28
2021/07/12 15:27:16;;;;;;;0.10;0.10;;;;;;;;;;10336793;28;20037;-28
2021/07/12 15:32:20;;;;;;;0.00;0.00;;;;;;;;;;10339056;28;20141;-27
2021/07/12 15:37:23;;;;;;;0.00;0.00;;;;;;;;;;10340593;28;20038;-28
2021/07/12 15:42:26;;;;;;;0.00;0.00;;;;;;;;;;10343621;28;20041;-29
2021/07/12 15:47:30;;;;;;;0.10;0.10;;;;;;;;;;10338115;28;20095;-28
2021/07/12 15:52:33;;;;;;;0.38;0.00;;;;;;;;;;10331679;28;20108;-28
2021/07/12 15:57:36;;;;;;;1.27;0.10;;;;;;;;;;10335813;28;20264;-28
2021/07/12 16:02:40;;;;;;;0.10;0.00;;;;;;;;;;10334036;28;20049;-28
2021/07/12 16:07:42;;;;;;;0.00;0.00;;;;;;;;;;10341258;28;20054;-28
2021/07/12 16:12:45;;;;;;;0.00;0.00;;;;;;;;;;10342134;28;20041;-28
2021/07/12 16:17:50;;;;;;;0.20;0.00;;;;;;;;;;10345794;28;20052;-28
2021/07/12 16:22:53;;;;;;;0.00;0.00;;;;;;;;;;10337532;28;20034;-28
2021/07/12 16:27:56;;;;;;;0.50;0.00;;;;;;;;;;10341440;28;20049;-28
2021/07/12 16:32:59;;;;;;;0.45;0.10;;;;;;;;;;10336560;28;20041;-28
2021/07/12 16:38:02;;;;;;;0.00;0.00;;;;;;;;;;10339991;28;20054;-28
2021/07/12 16:43:05;;;;;;;0.30;0.30;;;;;;;;;;10339015;28;20079;-28
2021/07/12 16:48:09;;;;;;;0.15;0.03;;;;;;;;;;10340474;28;20050;-30
2021/07/12 16:53:12;;;;;;;0.20;0.20;;;;;;;;;;10342636;28;20060;-28
2021/07/12 16:58:14;;;;;;;0.05;0.03;;;;;;;;;;10351038;28;20049;-28
2021/07/12 17:03:19;;;;;;;0.30;0.10;;;;;;;;;;10335575;28;20046;-28
2021/07/12 17:08:22;;;;;;;0.10;0.10;;;;;;;;;;10335276;28;20038;-28
2021/07/12 17:13:24;;;;;;;0.13;0.10;;;;;;;;;;10335925;28;20058;-28
2021/07/12 17:18:32;;;;;;;0.63;0.20;;;;;;;;;;10338180;28;20084;-28
2021/07/12 17:23:35;;;;;;;0.08;0.08;;;;;;;;;;10328560;28;20137;-28
2021/07/12 17:28:38;;;;;;;0.10;0.00;;;;;;;;;;10341005;28;20062;-28
2021/07/12 17:33:43;;;;;;;0.50;0.10;;;;;;;;;;10352188;28;20048;-29
2021/07/12 17:38:47;;;;;;;0.10;0.10;;;;;;;;;;10351977;28;20038;-27
2021/07/12 17:43:49;;;;;;;0.00;0.00;;;;;;;;;;10345019;28;20042;-28
2021/07/12 17:48:54;;;;;;;0.88;0.10;;;;;;;;;;10340862;28;20768;-28
2021/07/12 17:53:57;;;;;;;0.98;0.20;;;;;;;;;;10342212;28;20117;-28
2021/07/12 17:58:59;;;;;;;1.13;1.00;;;;;;;;;;10340066;28;20038;-28
2021/07/12 18:04:03;;;;;;;0.10;0.10;;;;;;;;;;10337514;28;20026;-28
2021/07/12 18:09:06;;;;;;;0.10;0.10;;;;;;;;;;10348239;28;20057;-28
2021/07/12 18:14:09;;;;;;;0.20;0.20;;;;;;;;;;10349637;28;20037;-27
2021/07/12 18:19:32;;;;;;;0.10;0.10;;;;;;;;;;10351206;28;20395;-28
2021/07/12 18:24:35;;;;;;;0.10;0.10;;;;;;;;;;10342970;28;20053;-28
2021/07/12 18:29:38;;;;;;;1.55;0.30;;;;;;;;;;10346547;28;20068;-28
2021/07/12 18:34:42;;;;;;;0.30;0.20;;;;;;;;;;10345193;28;20796;-28
2021/07/12 18:39:45;;;;;;;0.20;0.10;;;;;;;;;;10343806;28;20052;-28
2021/07/12 18:44:47;;;;;;;0.68;0.10;;;;;;;;;;10343273;28;20049;-29
2021/07/12 18:49:52;;;;;;;0.30;0.20;;;;;;;;;;10349347;28;20044;-27
2021/07/12 18:54:54;;;;;;;0.98;0.20;;;;;;;;;;10350584;28;20053;-28
2021/07/12 19:00:00;;;;;;;0.40;0.20;;;;;;;;;;10351467;28;20502;-28
2021/07/12 19:05:05;;;;;;;0.57;0.25;;;;;;;;;;10345976;28;20045;-29
2021/07/12 19:10:08;;;;;;;0.32;0.30;;;;;;;;;;10340335;28;20815;-28
2021/07/12 19:15:12;;;;;;;0.28;0.20;;;;;;;;;;10341629;28;20750;-28
2021/07/12 19:20:18;;;;;;;0.52;0.30;;;;;;;;;;10344828;28;20522;-28
2021/07/12 19:25:24;;;;;;;0.20;0.20;;;;;;;;;;10334741;28;20077;-29
2021/07/12 19:30:28;;;;;;;0.45;0.20;;;;;;;;;;10353339;28;20054;-27
2021/07/12 19:35:32;;;;;;;0.45;0.30;;;;;;;;;;10344959;28;20034;-29
2021/07/12 19:40:36;;;;;;;0.75;0.30;;;;;;;;;;10321855;28;20057;-27
2021/07/12 19:45:39;;;;;;;0.40;0.40;;;;;;;;;;10331094;28;20034;-28
2021/07/12 19:50:43;;;;;;;1.98;0.40;;;;;;;;;;10334145;28;20046;-28
2021/07/12 19:55:46;;;;;;;2.33;0.50;;;;;;;;;;10333182;28;20829;-27
2021/07/12 20:00:49;;;;;;;0.55;0.50;;;;;;;;;;10329832;28;20058;-24
2021/07/12 20:05:53;;;;;;;0.50;0.40;;;;;;;;;;10338068;28;20092;-24
2021/07/12 20:10:56;;;;;;;0.73;0.60;;;;;;;;;;10340513;28;20061;-23
2021/07/12 20:15:59;;;;;;;0.98;0.50;;;;;;;;;;10329070;28;20373;-23
2021/07/12 20:21:06;;;;;;;0.80;0.50;;;;;;;;;;10331866;28;20056;-24
2021/07/12 20:26:09;;;;;;;0.85;0.50;;;;;;;;;;10338838;28;20041;-23
2021/07/12 20:31:12;;;;;;;2.15;0.60;;;;;;;;;;10328918;28;20054;-23
2021/07/12 20:36:16;;;;;;;0.50;0.50;;;;;;;;;;10331110;28;20061;-24
2021/07/12 20:41:21;;;;;;;0.70;0.70;;;;;;;;;;10329361;28;20050;-24
2021/07/12 20:46:25;;;;;;;0.60;0.60;;;;;;;;;;10329742;28;20093;-23
2021/07/12 20:51:29;;;;;;;1.80;0.60;;;;;;;;;;10332170;28;20049;-23
2021/07/12 20:56:32;;;;;;;0.85;0.50;;;;;;;;;;10334876;28;20038;-23
2021/07/12 21:01:34;;;;;;;0.50;0.50;;;;;;;;;;10332021;28;20047;-24
2021/07/12 21:06:39;;;;;;;0.90;0.52;;;;;;;;;;10342833;28;20037;-23
2021/07/12 21:11:42;;;;;;;1.45;0.40;;;;;;;;;;10337545;28;20049;-23
2021/07/12 21:16:45;;;;;;;0.50;0.45;;;;;;;;;;10342844;28;20046;-24
2021/07/12 21:21:49;;;;;;;1.08;0.60;;;;;;;;;;10343262;28;20053;-23
2021/07/12 21:26:52;;;;;;;0.38;0.38;;;;;;;;;;10348046;28;20708;-24
2021/07/12 21:31:55;;;;;;;0.80;0.70;;;;;;;;;;10337700;28;20054;-24
2021/07/12 21:36:59;;;;;;;0.52;0.52;;;;;;;;;;10334779;28;20073;-23
2021/07/12 21:42:03;;;;;;;0.82;0.57;;;;;;;;;;10340545;28;20041;-23
2021/07/12 21:47:06;;;;;;;0.50;0.50;;;;;;;;;;10345906;28;20757;-23
2021/07/12 21:52:11;;;;;;;1.52;0.50;;;;;;;;;;10345614;28;20049;-23
2021/07/12 21:57:13;;;;;;;0.50;0.50;;;;;;;;;;10333205;28;20050;-23
2021/07/12 22:02:16;;;;;;;0.60;0.50;;;;;;;;;;10329783;28;20064;-23
2021/07/12 22:07:22;;;;;;;1.45;0.50;;;;;;;;;;10333694;28;20041;-23
2021/07/12 22:12:25;;;;;;;0.77;0.45;;;;;;;;;;10335770;28;20547;-23
2021/07/12 22:17:27;;;;;;;0.52;0.52;;;;;;;;;;10338019;28;20050;-23
2021/07/12 22:22:31;;;;;;;0.63;0.60;;;;;;;;;;10333832;28;20046;-23
2021/07/12 22:27:36;;;;;;;1.42;0.60;;;;;;;;;;10333622;28;20038;-23
2021/07/12 22:32:39;;;;;;;1.27;0.70;;;;;;;;;;10338270;28;20065;-23
2021/07/12 22:37:46;;;;;;;0.73;0.73;;;;;;;;;;10349874;28;20890;-23
2021/07/12 22:42:49;;;;;;;0.70;0.70;;;;;;;;;;10341578;28;20399;-23
2021/07/12 22:47:53;;;;;;;1.52;1.10;;;;;;;;;;10328499;28;20873;-24
2021/07/12 22:52:57;;;;;;;0.60;0.60;;;;;;;;;;10340410;28;20116;-23
2021/07/12 22:58:00;;;;;;;0.98;0.95;;;;;;;;;;10338479;28;20046;-24
2021/07/12 23:03:02;;;;;;;1.90;0.98;;;;;;;;;;10335969;28;20046;-23
2021/07/12 23:08:07;;;;;;;1.45;0.90;;;;;;;;;;10341455;28;20052;-24
2021/07/12 23:13:10;;;;;;;1.85;0.80;;;;;;;;;;10333103;28;20045;-23
2021/07/12 23:18:13;;;;;;;1.20;0.88;;;;;;;;;;10334202;28;20167;-24
2021/07/12 23:23:17;;;;;;;0.80;0.80;;;;;;;;;;10341194;28;20053;-24
2021/07/12 23:28:19;;;;;;;0.68;0.68;;;;;;;;;;10343560;28;20052;-24
2021/07/12 23:33:22;;;;;;;1.15;0.60;;;;;;;;;;10329415;28;20050;-23
2021/07/12 23:38:27;;;;;;;0.52;0.52;;;;;;;;;;10348304;28;20850;-23
2021/07/12 23:43:30;;;;;;;0.60;0.60;;;;;;;;;;10339439;28;20049;-23
2021/07/12 23:48:33;;;;;;;0.73;0.60;;;;;;;;;;10325754;28;20114;-23
2021/07/12 23:53:37;;;;;;;1.08;0.60;;;;;;;;;;10326300;28;20045;-23
2021/07/12 23:58:39;;;;;;;1.75;0.60;;;;;;;;;;10329104;28;20039;-23
